Time;durP1;ratioP1;P1;durP2;ratioP2;P2;SDS_P1;SDS_P2;PMS_P1;PMS_P2;Temp;Humidity;BMP_temperature;BMP_pressure;BME280_temperature;BME280_humidity;BME280_pressure;Samples;Min_cycle;Max_cycle;Signal;HPM_P1;HPM_P2
2023/08/20 00:00:53;;;;;;;;;6.50;4.50;;;;;23.55;58.03;101559.13;5079159;27;45389;-69
2023/08/20 00:03:18;;;;;;;;;3.25;3.00;;;;;23.51;57.98;101559.75;5079021;27;46473;-69
2023/08/20 00:05:44;;;;;;;;;3.00;2.00;;;;;23.50;57.83;101560.81;5079021;27;45305;-69
2023/08/20 00:08:09;;;;;;;;;2.75;2.00;;;;;23.52;57.61;101556.00;5079397;28;45272;-69
2023/08/20 00:10:34;;;;;;;;;3.25;3.00;;;;;23.60;57.37;101569.38;5078948;28;45333;-69
2023/08/20 00:13:00;;;;;;;;;3.00;3.00;;;;;23.57;57.67;101572.50;5078950;28;49694;-69
2023/08/20 00:15:28;;;;;;;;;3.00;3.00;;;;;23.47;57.23;101545.78;5078586;27;45469;-69
2023/08/20 00:17:55;;;;;;;;;5.00;3.00;;;;;23.55;57.18;101556.41;5078792;27;45544;-69
2023/08/20 00:20:21;;;;;;;;;1.00;1.00;;;;;23.21;57.85;101514.03;5077741;28;45473;-69
2023/08/20 00:22:47;;;;;;;;;4.00;4.00;;;;;23.51;57.61;101554.34;5078888;27;46565;-69
2023/08/20 00:25:14;;;;;;;;;2.00;2.00;;;;;23.48;57.69;101558.31;5077513;27;45497;-69
2023/08/20 00:27:40;;;;;;;;;2.00;1.50;;;;;23.51;57.51;101566.03;5078915;27;45166;-68
2023/08/20 00:30:06;;;;;;;;;4.00;2.25;;;;;23.54;57.32;101564.75;5079052;27;45326;-69
2023/08/20 00:32:31;;;;;;;;;5.75;2.00;;;;;23.46;57.62;101548.69;5078102;27;47569;-68
2023/08/20 00:34:57;;;;;;;;;5.00;3.75;;;;;23.47;57.20;101550.38;5078498;28;45510;-69
2023/08/20 00:37:22;;;;;;;;;3.00;2.00;;;;;23.57;57.18;101564.38;5078774;28;45358;-68
2023/08/20 00:39:48;;;;;;;;;2.00;2.00;;;;;23.54;57.18;101562.06;5078949;27;45383;-67
2023/08/20 00:42:16;;;;;;;;;5.25;3.50;;;;;23.44;57.30;101557.06;5078368;27;46025;-70
2023/08/20 00:44:44;;;;;;;;;4.00;2.00;;;;;23.28;57.12;101544.72;5078579;27;45472;-68
2023/08/20 00:47:10;;;;;;;;;3.50;2.25;;;;;23.40;57.15;101565.81;5078180;27;45213;-68
2023/08/20 00:49:36;;;;;;;;;2.00;2.00;;;;;23.40;57.22;101566.63;5078660;27;45311;-69
2023/08/20 00:52:03;;;;;;;;;4.50;3.50;;;;;23.19;57.27;101542.41;5078096;27;45535;-69
2023/08/20 00:54:31;;;;;;;;;4.00;3.00;;;;;23.34;57.60;101573.75;5078331;27;45535;-69
2023/08/20 00:56:56;;;;;;;;;3.00;3.00;;;;;23.33;57.63;101572.06;5077166;28;45325;-69
2023/08/20 00:59:22;;;;;;;;;4.25;3.00;;;;;23.38;57.17;101574.97;5078507;27;45396;-68
2023/08/20 01:01:48;;;;;;;;;3.50;2.50;;;;;23.46;57.13;101573.13;5077882;27;46320;-68
2023/08/20 01:04:13;;;;;;;;;3.00;3.00;;;;;23.31;57.19;101567.91;5078352;27;45305;-67
2023/08/20 01:07:24;;;;;;;;;3.00;3.00;;;;;23.34;57.41;101573.75;5078518;28;45525;-68
2023/08/20 01:10:13;;;;;;;;;1.25;1.25;;;;;23.31;57.46;101579.59;5067525;27;45411;-69
2023/08/20 01:12:38;;;;;;;;;2.25;2.25;;;;;23.19;57.25;101558.69;5076728;28;45918;-68
2023/08/20 01:15:04;;;;;;;;;4.00;2.00;;;;;23.28;57.76;101569.16;5078061;27;45308;-69
2023/08/20 01:17:29;;;;;;;;;2.50;2.50;;;;;23.26;57.93;101579.38;5077713;27;45478;-68
2023/08/20 01:19:55;;;;;;;;;4.00;3.25;;;;;23.27;57.48;101582.94;5078353;27;45225;-67
2023/08/20 01:22:39;;;;;;;;;1.25;1.25;;;;;23.27;57.47;101577.50;5077118;27;46510;-68
2023/08/20 01:25:42;;;;;;;;;5.75;2.75;;;;;23.27;57.89;101583.75;5078052;27;45397;-68
2023/08/20 01:28:25;;;;;;;;;3.00;1.00;;;;;23.27;57.51;101578.34;5077899;28;45375;-67
2023/08/20 01:30:52;;;;;;;;;3.00;1.25;;;;;23.24;57.40;101583.34;5077893;27;45358;-68
2023/08/20 01:33:19;;;;;;;;;3.50;3.50;;;;;23.08;58.07;101584.56;5077656;27;45445;-68
2023/08/20 01:35:44;;;;;;;;;5.25;4.25;;;;;23.04;58.54;101584.16;5077916;27;45236;-69
2023/08/20 01:38:10;;;;;;;;;3.75;3.25;;;;;23.03;58.06;101587.91;5077597;28;45491;-67
2023/08/20 01:40:35;;;;;;;;;4.50;4.00;;;;;22.99;58.56;101583.91;5078006;27;45414;-68
2023/08/20 01:43:00;;;;;;;;;4.50;4.00;;;;;23.04;58.45;101595.00;5077555;27;45500;-68
2023/08/20 01:45:26;;;;;;;;;5.50;2.75;;;;;23.02;58.54;101598.94;5076906;28;58312;-69
2023/08/20 01:47:52;;;;;;;;;3.00;2.00;;;;;22.95;58.90;101588.06;5077933;27;45374;-68
2023/08/20 01:50:17;;;;;;;;;2.25;2.25;;;;;22.92;58.97;101590.38;5077818;27;45503;-68
2023/08/20 01:52:42;;;;;;;;;1.75;1.75;;;;;22.84;59.21;101588.69;5077538;27;45603;-68
2023/08/20 01:55:08;;;;;;;;;4.25;1.75;;;;;22.85;58.94;101586.81;5077082;27;61323;-68
2023/08/20 01:57:33;;;;;;;;;2.00;2.00;;;;;22.74;59.10;101578.19;5077105;28;54140;-67
2023/08/20 01:59:58;;;;;;;;;5.50;3.00;;;;;22.82;59.45;101596.16;5077539;27;45209;-69
2023/08/20 02:02:24;;;;;;;;;1.50;1.50;;;;;22.34;59.40;101523.00;5076968;27;49797;-67
2023/08/20 02:04:50;;;;;;;;;1.25;1.25;;;;;22.23;60.01;101514.63;5077193;27;45477;-67
2023/08/20 02:07:16;;;;;;;;;2.00;2.00;;;;;22.38;59.20;101539.69;5077437;27;45500;-68
2023/08/20 02:09:41;;;;;;;;;1.00;1.00;;;;;22.29;59.74;101528.19;5077713;27;45303;-68
2023/08/20 02:12:07;;;;;;;;;4.00;2.25;;;;;22.59;59.23;101574.78;5077270;27;45306;-68
2023/08/20 02:14:34;;;;;;;;;2.00;2.00;;;;;22.61;59.84;101591.69;5075807;28;45390;-67
2023/08/20 02:17:03;;;;;;;;;2.50;2.00;;;;;22.52;59.65;101582.06;5076851;27;45316;-68
2023/08/20 02:19:28;;;;;;;;;4.25;2.50;;;;;22.53;59.71;101580.19;5077445;27;45497;-68
2023/08/20 02:21:54;;;;;;;;;2.75;2.75;;;;;22.30;59.41;101538.00;5077002;27;46184;-68
2023/08/20 02:24:19;;;;;;;;;5.00;2.75;;;;;22.55;59.73;101589.78;5077100;27;45336;-68
2023/08/20 02:26:44;;;;;;;;;2.00;2.00;;;;;22.56;59.76;101591.47;5077269;27;45486;-68
2023/08/20 02:29:10;;;;;;;;;2.50;2.50;;;;;21.69;59.40;101447.69;5077347;27;45458;-68
2023/08/20 02:31:35;;;;;;;;;3.00;1.75;;;;;22.58;59.46;101583.97;5076619;27;46747;-68
2023/08/20 02:34:01;;;;;;;;;1.75;1.75;;;;;22.60;59.72;101584.59;5077695;27;45371;-68
2023/08/20 02:36:26;;;;;;;;;0.75;0.75;;;;;22.50;59.90;101576.03;5078929;27;45442;-68
2023/08/20 02:38:52;;;;;;;;;1.00;1.00;;;;;22.54;59.77;101587.28;5080788;27;45537;-68
2023/08/20 02:41:17;;;;;;;;;2.25;1.00;;;;;22.46;59.87;101582.88;5080290;27;48313;-68
2023/08/20 02:43:42;;;;;;;;;3.75;2.00;;;;;22.58;59.71;101583.13;5080439;27;45419;-68
2023/08/20 02:46:08;;;;;;;;;2.00;2.00;;;;;22.59;59.62;101582.09;5079842;28;57443;-69
2023/08/20 02:48:33;;;;;;;;;2.25;2.00;;;;;22.52;59.75;101590.19;5080804;28;45265;-68
2023/08/20 02:50:59;;;;;;;;;3.50;2.00;;;;;22.50;60.34;101586.84;5080257;27;47007;-68
2023/08/20 02:53:24;;;;;;;;;2.25;2.25;;;;;22.45;60.01;101578.50;5080481;28;45288;-68
2023/08/20 02:55:49;;;;;;;;;3.00;3.00;;;;;22.43;60.45;101592.25;5080647;27;45654;-68
2023/08/20 02:58:15;;;;;;;;;5.00;3.00;;;;;22.16;60.25;101542.50;5080551;27;45220;-68
2023/08/20 03:00:42;;;;;;;;;3.50;2.25;;;;;22.43;60.21;101588.72;5080031;27;46664;-69
2023/08/20 03:03:08;;;;;;;;;2.00;2.00;;;;;22.40;60.75;101578.25;5078875;28;45276;-69
2023/08/20 03:05:34;;;;;;;;;4.00;4.00;;;;;22.45;60.18;101581.22;5080252;28;45302;-69
2023/08/20 03:08:00;;;;;;;;;4.25;2.25;;;;;22.38;60.70;101588.47;5080471;27;45382;-68
2023/08/20 03:10:27;;;;;;;;;2.00;2.00;;;;;22.31;60.99;101579.47;5080057;28;46488;-69
2023/08/20 03:12:52;;;;;;;;;3.25;2.50;;;;;21.97;60.92;101528.84;5080060;27;45379;-69
2023/08/20 03:15:17;;;;;;;;;3.00;2.00;;;;;22.24;60.49;101584.88;5080247;27;45524;-68
2023/08/20 03:17:43;;;;;;;;;3.00;2.75;;;;;22.28;60.81;101580.72;5079840;27;45538;-68
2023/08/20 03:20:09;;;;;;;;;4.00;1.00;;;;;22.17;60.51;101565.00;5078553;28;46335;-68
2023/08/20 03:22:37;;;;;;;;;2.00;2.00;;;;;22.32;60.61;101579.28;5079828;27;45526;-69
2023/08/20 03:25:02;;;;;;;;;3.00;2.25;;;;;21.69;60.95;101472.03;5080118;27;45458;-69
2023/08/20 03:27:28;;;;;;;;;4.25;3.00;;;;;22.24;60.82;101567.78;5079969;27;45279;-68
2023/08/20 03:29:53;;;;;;;;;2.00;2.00;;;;;22.26;61.11;101584.66;5079711;27;46475;-68
2023/08/20 03:32:19;;;;;;;;;2.75;2.75;;;;;22.24;61.02;101584.03;5079420;28;45252;-69
2023/08/20 03:34:44;;;;;;;;;3.00;3.00;;;;;22.25;60.95;101583.81;5079430;28;52442;-68
2023/08/20 03:37:09;;;;;;;;;5.00;3.75;;;;;22.24;61.09;101576.75;5079689;27;46780;-69
2023/08/20 03:39:34;;;;;;;;;2.00;2.00;;;;;22.22;60.91;101577.94;5078008;27;46988;-69
2023/08/20 03:42:00;;;;;;;;;3.25;2.00;;;;;22.06;60.96;101561.00;5079645;27;45315;-68
2023/08/20 03:44:25;;;;;;;;;2.25;2.25;;;;;22.19;61.24;101575.66;5079077;28;55203;-70
2023/08/20 03:46:51;;;;;;;;;2.00;2.00;;;;;22.18;61.13;101569.41;5078905;27;45176;-70
2023/08/20 03:49:16;;;;;;;;;1.00;1.00;;;;;22.12;61.19;101562.91;5079564;27;45590;-69
2023/08/20 03:51:42;;;;;;;;;4.00;3.00;;;;;22.19;61.16;101583.78;5079535;28;45374;-67
2023/08/20 03:54:08;;;;;;;;;2.25;1.75;;;;;21.91;61.14;101535.88;5078293;28;45494;-68
2023/08/20 03:56:33;;;;;;;;;2.00;1.75;;;;;22.15;61.32;101586.88;5079568;27;45366;-69
2023/08/20 03:58:59;;;;;;;;;2.25;1.75;;;;;22.14;61.46;101593.34;5079390;27;45744;-69
2023/08/20 04:01:24;;;;;;;;;4.00;2.50;;;;;22.17;61.29;101597.50;5078828;28;48464;-70
2023/08/20 04:03:49;;;;;;;;;2.25;2.25;;;;;22.17;61.23;101592.09;5079658;28;45328;-69
2023/08/20 04:06:15;;;;;;;;;2.25;2.25;;;;;22.27;61.20;101594.47;5079651;28;45310;-69
2023/08/20 04:08:41;;;;;;;;;2.00;2.00;;;;;22.22;61.35;101583.38;5077943;28;47666;-70
2023/08/20 04:11:06;;;;;;;;;2.75;2.75;;;;;22.22;61.20;101596.91;5079117;27;45331;-68
2023/08/20 04:13:32;;;;;;;;;1.00;1.00;;;;;22.20;61.00;101601.69;5079143;28;45438;-69
2023/08/20 04:15:57;;;;;;;;;1.75;1.75;;;;;22.19;61.58;101600.84;5079309;27;45259;-69
2023/08/20 04:18:22;;;;;;;;;3.25;2.25;;;;;21.83;61.56;101538.78;5078693;28;45592;-69
2023/08/20 04:20:52;;;;;;;;;2.50;2.50;;;;;22.13;61.77;101594.38;5078925;27;45319;-67
2023/08/20 04:23:18;;;;;;;;;4.75;2.50;;;;;22.06;61.59;101588.09;5079197;27;45287;-67
2023/08/20 04:25:44;;;;;;;;;2.00;2.00;;;;;21.72;61.95;101542.00;5079284;27;45418;-68
2023/08/20 04:28:10;;;;;;;;;6.50;4.00;;;;;22.20;61.37;101612.53;5078812;27;46486;-69
2023/08/20 04:30:36;;;;;;;;;3.00;2.00;;;;;22.17;61.86;101603.78;5078703;27;45691;-68
2023/08/20 04:33:01;;;;;;;;;3.00;1.50;;;;;22.07;61.67;101608.72;5079312;27;45244;-68
2023/08/20 04:35:27;;;;;;;;;4.25;3.00;;;;;22.12;61.84;101600.84;5079073;27;45336;-69
2023/08/20 04:37:52;;;;;;;;;4.00;2.50;;;;;22.21;61.72;101619.63;5078450;27;45499;-69
2023/08/20 04:40:17;;;;;;;;;3.75;3.75;;;;;22.26;61.79;101601.75;5077981;27;64903;-69
2023/08/20 04:42:43;;;;;;;;;3.25;2.50;;;;;22.28;61.70;101618.63;5078729;27;45189;-69
2023/08/20 04:45:09;;;;;;;;;2.25;2.00;;;;;22.18;61.48;101599.19;5078989;27;45524;-69
2023/08/20 04:47:34;;;;;;;;;2.25;2.25;;;;;22.17;61.79;101603.78;5078086;27;46906;-68
2023/08/20 04:49:59;;;;;;;;;4.75;3.50;;;;;22.29;61.81;101608.63;5078638;28;45274;-69
2023/08/20 04:52:25;;;;;;;;;4.50;3.50;;;;;22.27;61.71;101608.00;5078743;27;45493;-70
2023/08/20 04:54:50;;;;;;;;;2.00;2.00;;;;;22.33;61.71;101618.03;5078511;28;45247;-69
2023/08/20 04:57:16;;;;;;;;;2.00;1.25;;;;;22.33;61.58;101618.88;5076911;27;46379;-70
2023/08/20 04:59:45;;;;;;;;;2.50;1.50;;;;;22.30;61.71;101613.84;5078520;27;45450;-69
2023/08/20 05:02:10;;;;;;;;;1.50;1.50;;;;;22.34;61.64;101619.72;5078287;27;45298;-69
2023/08/20 05:04:36;;;;;;;;;2.00;2.00;;;;;22.25;61.82;101618.22;5078691;27;45456;-68
2023/08/20 05:07:01;;;;;;;;;1.25;1.25;;;;;22.13;61.60;101590.84;5078448;27;46444;-69
2023/08/20 05:09:26;;;;;;;;;3.00;3.00;;;;;22.29;61.68;101627.59;5077860;27;45459;-69
2023/08/20 05:11:52;;;;;;;;;2.00;2.00;;;;;22.02;61.63;101584.06;5078484;27;45211;-70
2023/08/20 05:14:17;;;;;;;;;3.00;3.00;;;;;22.25;61.70;101616.34;5077777;27;50207;-69
2023/08/20 05:16:42;;;;;;;;;3.00;3.00;;;;;22.08;61.83;101604.13;5075746;27;67784;-68
2023/08/20 05:19:07;;;;;;;;;2.00;2.00;;;;;22.26;62.17;101634.25;5077837;28;45296;-70
2023/08/20 05:21:33;;;;;;;;;3.25;2.75;;;;;22.14;62.11;101615.00;5077953;27;45500;-68
2023/08/20 05:23:58;;;;;;;;;2.50;2.50;;;;;22.20;61.97;101629.63;5078468;27;45496;-70
2023/08/20 05:26:23;;;;;;;;;5.00;4.00;;;;;22.23;62.03;101631.13;5077271;28;68074;-69
2023/08/20 05:28:49;;;;;;;;;4.50;2.00;;;;;22.19;61.99;101610.84;5077444;28;60162;-69
2023/08/20 05:31:14;;;;;;;;;3.00;3.00;;;;;22.00;62.17;101585.28;5076920;28;61144;-69
2023/08/20 05:33:39;;;;;;;;;3.00;3.00;;;;;22.33;61.97;101642.41;5078190;27;45423;-69
2023/08/20 05:36:05;;;;;;;;;4.75;3.50;;;;;22.33;61.82;101639.72;5077304;28;58537;-69
2023/08/20 05:38:30;;;;;;;;;5.50;4.00;;;;;22.05;61.58;101591.84;5076341;28;45413;-70
2023/08/20 05:40:55;;;;;;;;;3.00;2.25;;;;;21.84;62.33;101562.94;5077690;27;49273;-69
2023/08/20 05:43:21;;;;;;;;;3.25;3.25;;;;;22.27;62.38;101641.34;5078052;27;45422;-69
2023/08/20 05:45:46;;;;;;;;;4.75;3.50;;;;;22.23;62.39;101648.22;5077295;28;45551;-68
2023/08/20 05:48:12;;;;;;;;;4.00;3.00;;;;;22.19;62.48;101632.53;5076367;28;45434;-68
2023/08/20 05:50:37;;;;;;;;;4.25;2.25;;;;;22.22;62.13;101643.78;5077668;27;45433;-69
2023/08/20 05:53:02;;;;;;;;;3.25;3.00;;;;;22.27;61.88;101640.50;5077758;27;45408;-68
2023/08/20 05:55:28;;;;;;;;;5.25;3.00;;;;;22.31;61.88;101655.31;5077536;27;46501;-68
2023/08/20 05:57:53;;;;;;;;;2.50;2.00;;;;;21.73;61.79;101541.81;5077693;27;45416;-69
2023/08/20 06:00:18;;;;;;;;;5.25;2.50;;;;;22.39;61.73;101641.59;5077187;28;54561;-68
2023/08/20 06:02:44;;;;;;;;;2.25;2.25;;;;;22.44;61.59;101644.56;5077326;27;45314;-69
2023/08/20 06:05:09;;;;;;;;;2.00;2.00;;;;;22.32;62.21;101635.31;5077283;27;47019;-68
2023/08/20 06:07:35;;;;;;;;;3.75;3.75;;;;;22.34;62.08;101654.94;5077470;28;45327;-69
2023/08/20 06:10:00;;;;;;;;;2.50;2.00;;;;;22.32;62.18;101657.84;5076903;27;45177;-69
2023/08/20 06:12:25;;;;;;;;;5.00;3.00;;;;;22.25;62.14;101648.84;5077092;28;52575;-69
2023/08/20 06:14:51;;;;;;;;;3.50;2.50;;;;;22.36;62.07;101650.13;5077159;28;45658;-70
2023/08/20 06:17:16;;;;;;;;;4.00;3.00;;;;;22.48;61.83;101662.09;5076626;28;46079;-69
2023/08/20 06:19:43;;;;;;;;;2.75;2.75;;;;;22.57;62.42;101679.03;5077145;27;45679;-69
2023/08/20 06:22:09;;;;;;;;;2.25;2.25;;;;;22.61;61.76;101664.88;5077493;28;45366;-69
2023/08/20 06:24:34;;;;;;;;;2.00;2.00;;;;;22.67;61.58;101664.09;5076524;28;46912;-67
2023/08/20 06:26:59;;;;;;;;;6.00;3.00;;;;;22.77;61.71;101672.66;5076508;28;61078;-69
2023/08/20 06:29:25;;;;;;;;;2.25;2.25;;;;;22.82;62.01;101668.53;5075965;28;45378;-69
2023/08/20 06:31:50;;;;;;;;;4.75;3.25;;;;;22.84;61.75;101659.19;5077364;28;45548;-67
2023/08/20 06:34:16;;;;;;;;;3.75;3.75;;;;;22.90;61.94;101660.25;5076990;27;45594;-69
2023/08/20 06:36:42;;;;;;;;;2.00;2.00;;;;;22.99;61.67;101657.13;5076784;27;45532;-69
2023/08/20 06:39:07;;;;;;;;;3.00;3.00;;;;;23.19;61.44;101678.91;5077013;28;45544;-69
2023/08/20 06:41:34;;;;;;;;;7.00;4.00;;;;;23.42;60.69;101639.69;5077166;27;45306;-72
2023/08/20 06:43:59;;;;;;;;;2.00;2.00;;;;;23.90;58.79;101622.22;5097409;27;46563;-69
2023/08/20 06:46:25;;;;;;;;;3.00;3.00;;;;;24.55;57.60;101625.84;5117172;27;45467;-72
2023/08/20 06:48:50;;;;;;;;;3.50;3.50;;;;;25.09;55.79;101621.03;5108995;27;45564;-68
2023/08/20 06:51:18;;;;;;;;;3.00;3.00;;;;;25.70;54.75;101637.56;5105533;27;45477;-69
2023/08/20 06:53:44;;;;;;;;;3.25;3.00;;;;;26.38;53.60;101663.97;5114456;27;46695;-69
2023/08/20 06:56:11;;;;;;;;;3.25;3.25;;;;;26.97;52.24;101674.19;5117436;27;45323;-69
2023/08/20 06:58:37;;;;;;;;;5.00;3.00;;;;;27.41;51.35;101658.47;5102822;27;45425;-69
2023/08/20 07:01:09;;;;;;;;;4.00;3.00;;;;;27.87;49.48;101656.94;5102301;27;45350;-69
2023/08/20 07:03:40;;;;;;;;;2.00;2.00;;;;;28.31;48.75;101669.19;5115562;27;45531;-68
2023/08/20 07:06:06;;;;;;;;;2.75;2.00;;;;;28.77;47.43;101657.31;5109985;27;45538;-69
2023/08/20 07:08:31;;;;;;;;;2.75;2.75;;;;;29.28;46.99;101674.78;5077444;27;45485;-69
2023/08/20 07:10:57;;;;;;;;;2.75;1.50;;;;;29.74;45.68;101672.03;5095930;27;45447;-69
2023/08/20 07:13:23;;;;;;;;;2.25;2.25;;;;;30.12;44.29;101676.78;5096700;27;46681;-68
2023/08/20 07:15:48;;;;;;;;;3.00;3.00;;;;;30.19;44.09;101644.50;5096452;27;45597;-67
2023/08/20 07:18:14;;;;;;;;;2.75;2.75;;;;;30.75;43.68;101669.97;5096539;27;45258;-69
2023/08/20 07:20:42;;;;;;;;;2.75;2.75;;;;;31.16;42.70;101674.84;5097797;27;45599;-68
2023/08/20 07:23:07;;;;;;;;;3.00;2.00;;;;;31.48;42.30;101672.16;5100227;27;47272;-68
2023/08/20 07:25:32;;;;;;;;;5.00;2.75;;;;;31.82;41.21;101676.59;5108406;27;45318;-68
2023/08/20 07:27:59;;;;;;;;;1.25;1.25;;;;;32.02;41.19;101676.72;5104171;27;45519;-69
2023/08/20 07:30:25;;;;;;;;;1.75;1.00;;;;;32.22;40.67;101665.84;5099564;27;45613;-69
2023/08/20 07:32:50;;;;;;;;;3.00;3.00;;;;;32.54;39.07;101675.97;5101777;27;46515;-71
2023/08/20 07:35:16;;;;;;;;;1.25;1.25;;;;;32.24;39.38;101641.69;5108561;27;45201;-70
2023/08/20 07:37:41;;;;;;;;;2.25;2.25;;;;;32.58;40.24;101677.91;5103072;27;45340;-69
2023/08/20 07:40:07;;;;;;;;;2.75;2.75;;;;;32.71;40.16;101679.34;5100875;27;45519;-70
2023/08/20 07:42:32;;;;;;;;;5.75;4.00;;;;;32.42;39.00;101664.34;5116174;27;46282;-69
2023/08/20 07:44:58;;;;;;;;;3.75;3.75;;;;;32.14;40.25;101619.59;5112956;27;45216;-68
2023/08/20 07:47:23;;;;;;;;;4.75;3.50;;;;;32.45;40.34;101666.59;5099609;27;45506;-68
2023/08/20 07:49:48;;;;;;;;;3.50;3.50;;;;;32.50;40.53;101666.59;5099884;27;45201;-69
2023/08/20 07:52:14;;;;;;;;;4.50;3.00;;;;;32.14;40.38;101629.78;5098902;27;46226;-69
2023/08/20 07:54:39;;;;;;;;;2.25;2.00;;;;;32.34;40.87;101668.44;5114722;27;45368;-68
2023/08/20 07:57:04;;;;;;;;;2.50;2.50;;;;;32.14;40.78;101668.28;5097395;27;45366;-69
2023/08/20 07:59:30;;;;;;;;;3.00;2.25;;;;;31.99;41.34;101672.59;5097886;27;45504;-69
2023/08/20 08:01:55;;;;;;;;;4.00;2.75;;;;;31.83;41.25;101670.00;5098582;27;46543;-68
2023/08/20 08:04:21;;;;;;;;;4.75;2.75;;;;;31.78;41.57;101674.38;5098587;27;45418;-68
2023/08/20 08:06:46;;;;;;;;;4.00;3.00;;;;;31.54;42.36;101664.78;5099501;27;45302;-69
2023/08/20 08:09:20;;;;;;;;;3.50;3.50;;;;;31.43;42.62;101687.75;5100042;27;45488;-69
2023/08/20 08:11:45;;;;;;;;;4.50;3.00;;;;;31.13;43.54;101682.78;5099633;27;45673;-69
2023/08/20 08:14:11;;;;;;;;;3.50;3.50;;;;;30.87;43.56;101676.16;5099368;27;48939;-67
2023/08/20 08:16:37;;;;;;;;;3.75;3.75;;;;;30.89;43.85;101679.50;5099483;27;45256;-67
2023/08/20 08:19:02;;;;;;;;;4.50;4.50;;;;;30.90;44.00;101685.81;5099299;27;45811;-69
2023/08/20 08:21:27;;;;;;;;;4.00;4.00;;;;;30.79;43.68;101676.59;5099275;27;46578;-69
2023/08/20 08:23:52;;;;;;;;;4.75;4.75;;;;;30.58;44.27;101683.72;5099306;27;47228;-69
2023/08/20 08:26:18;;;;;;;;;5.75;4.00;;;;;30.51;44.92;101692.16;5099439;27;45401;-69
2023/08/20 08:28:43;;;;;;;;;5.00;4.00;;;;;30.51;45.07;101700.38;5099719;27;45397;-69
2023/08/20 08:31:08;;;;;;;;;4.50;4.25;;;;;30.23;45.16;101670.34;5098851;27;45686;-69
2023/08/20 08:33:34;;;;;;;;;3.50;3.00;;;;;30.32;45.92;101704.50;5098416;27;62840;-69
2023/08/20 08:35:59;;;;;;;;;4.25;3.25;;;;;30.15;45.47;101679.00;5099298;27;46050;-69
2023/08/20 08:38:24;;;;;;;;;3.00;3.00;;;;;30.22;45.64;101701.59;5099397;27;45376;-69
2023/08/20 08:40:50;;;;;;;;;6.00;4.67;;;;;30.28;46.08;101700.59;5098402;27;64538;-69
2023/08/20 08:43:17;;;;;;;;;6.00;5.00;;;;;30.02;45.84;101698.50;5099409;27;45609;-70
2023/08/20 08:45:47;;;;;;;;;3.75;3.75;;;;;30.11;46.56;101708.03;5098937;27;45535;-69
2023/08/20 08:48:13;;;;;;;;;4.50;3.50;;;;;30.19;46.25;101707.59;5099105;27;45410;-69
2023/08/20 08:50:39;;;;;;;;;4.50;4.00;;;;;29.92;46.43;101653.41;5098605;27;46633;-69
2023/08/20 08:53:06;;;;;;;;;2.50;2.50;;;;;30.34;46.59;101696.84;5098826;27;45428;-70
2023/08/20 08:55:31;;;;;;;;;4.25;4.25;;;;;30.33;46.39;101703.41;5098518;27;45307;-69
2023/08/20 08:57:56;;;;;;;;;4.00;4.00;;;;;30.32;47.29;101699.00;5098876;27;45321;-70
2023/08/20 09:00:22;;;;;;;;;6.25;4.00;;;;;30.39;46.37;101705.16;5098451;27;48937;-69
2023/08/20 09:02:47;;;;;;;;;3.75;3.50;;;;;30.14;46.06;101653.50;5098391;27;45204;-69
2023/08/20 09:05:14;;;;;;;;;4.00;3.00;;;;;30.29;46.33;101688.56;5098842;27;45532;-69
2023/08/20 09:07:43;;;;;;;;;4.50;3.75;;;;;30.24;46.32;101696.72;5097883;27;45391;-69
2023/08/20 09:10:09;;;;;;;;;2.25;2.25;;;;;30.19;46.28;101694.69;5098303;27;46600;-70
2023/08/20 09:12:35;;;;;;;;;5.00;5.00;;;;;30.28;46.56;101689.63;5098453;27;45247;-69
2023/08/20 09:15:00;;;;;;;;;4.00;4.00;;;;;30.12;47.08;101674.84;5098692;27;45417;-68
2023/08/20 09:17:27;;;;;;;;;4.00;4.00;;;;;30.18;46.67;101664.78;5113490;27;45518;-69
2023/08/20 09:19:55;;;;;;;;;3.25;2.00;;;;;30.10;46.30;101654.25;5098160;27;46363;-69
2023/08/20 09:22:20;;;;;;;;;4.00;4.00;;;;;30.12;46.75;101654.84;5098820;27;45341;-69
2023/08/20 09:24:51;;;;;;;;;2.50;2.50;;;;;30.40;46.57;101662.91;5098673;27;45408;-69
2023/08/20 09:27:16;;;;;;;;;4.75;4.00;;;;;30.43;46.21;101623.16;5098677;27;45387;-69
2023/08/20 09:29:49;;;;;;;;;4.50;4.50;;;;;31.00;45.43;101667.50;5096283;27;58126;-69
2023/08/20 09:32:25;;;;;;;;;5.00;4.00;;;;;31.08;44.27;101658.00;5097960;27;45531;-70
2023/08/20 09:34:53;;;;;;;;;3.00;3.00;;;;;30.96;44.48;101669.13;5098326;27;45527;-70
2023/08/20 09:37:21;;;;;;;;;3.50;2.75;;;;;31.26;44.48;101670.59;5098640;27;45282;-69
2023/08/20 09:39:46;;;;;;;;;4.25;4.25;;;;;31.50;43.36;101673.81;5097730;27;46613;-69
2023/08/20 09:42:13;;;;;;;;;3.25;3.25;;;;;31.73;43.02;101666.09;5097763;27;46844;-68
2023/08/20 09:44:45;;;;;;;;;5.00;4.50;;;;;32.04;42.77;101669.91;5096964;27;45337;-70
2023/08/20 09:47:12;;;;;;;;;2.75;2.75;;;;;32.20;41.83;101672.72;5097936;27;45627;-69
2023/08/20 09:49:39;;;;;;;;;5.00;3.50;;;;;32.32;42.28;101676.97;5096456;27;45743;-69
2023/08/20 09:52:06;;;;;;;;;4.00;4.00;;;;;32.33;41.30;101667.63;5098188;27;45269;-69
2023/08/20 09:54:35;;;;;;;;;4.00;3.25;;;;;32.30;41.96;101673.66;5097799;27;45536;-70
2023/08/20 09:57:03;;;;;;;;;4.00;4.00;;;;;32.19;41.97;101671.91;5096665;27;45301;-69
2023/08/20 09:59:29;;;;;;;;;3.50;3.50;;;;;32.18;42.22;101667.50;5095974;27;48916;-69
2023/08/20 10:01:56;;;;;;;;;2.50;2.50;;;;;32.39;41.95;101668.47;5097417;27;45565;-69
2023/08/20 10:04:23;;;;;;;;;6.00;3.25;;;;;32.53;41.99;101663.31;5097905;27;45557;-69
2023/08/20 10:06:50;;;;;;;;;4.50;4.00;;;;;32.88;41.33;101669.00;5097810;27;45154;-69
2023/08/20 10:09:17;;;;;;;;;5.75;4.00;;;;;33.33;40.09;101661.94;5097582;27;46737;-69
2023/08/20 10:11:43;;;;;;;;;3.50;3.50;;;;;33.89;39.09;101661.16;5097471;27;45413;-68
2023/08/20 10:14:08;;;;;;;;;5.00;4.75;;;;;34.38;37.54;101670.44;5097392;27;45414;-69
2023/08/20 10:16:34;;;;;;;;;6.00;3.50;;;;;34.72;37.16;101665.06;5095933;27;45248;-68
2023/08/20 10:19:05;;;;;;;;;4.25;3.00;;;;;34.72;36.59;101654.00;5097216;27;45780;-69
2023/08/20 10:21:31;;;;;;;;;4.50;3.00;;;;;34.66;37.37;101657.09;5097283;27;45388;-69
2023/08/20 10:23:57;;;;;;;;;4.75;4.00;;;;;34.44;37.51;101644.47;5097568;27;45338;-69
2023/08/20 10:26:24;;;;;;;;;4.00;2.50;;;;;34.16;37.57;101659.69;5113295;27;45653;-69
2023/08/20 10:28:49;;;;;;;;;6.50;5.75;;;;;33.75;38.79;101650.63;5097025;27;46227;-69
2023/08/20 10:31:17;;;;;;;;;3.00;3.00;;;;;33.43;39.75;101652.84;5097139;27;45310;-69
2023/08/20 10:33:49;;;;;;;;;3.50;3.50;;;;;33.02;40.35;101655.50;5097537;27;45351;-70
2023/08/20 10:36:22;;;;;;;;;5.50;5.50;;;;;32.71;40.94;101656.50;5097627;27;45506;-69
2023/08/20 10:38:50;;;;;;;;;4.75;4.00;;;;;32.45;41.41;101655.56;5096844;27;47023;-69
2023/08/20 10:41:18;;;;;;;;;5.00;3.75;;;;;32.06;41.58;101640.19;5097008;27;45384;-68
2023/08/20 10:43:51;;;;;;;;;3.00;3.00;;;;;31.94;42.15;101660.72;5095600;27;45289;-68
2023/08/20 10:46:21;;;;;;;;;3.50;3.50;;;;;31.68;41.85;101637.69;5096701;27;45480;-68
2023/08/20 10:48:54;;;;;;;;;4.00;3.00;;;;;31.64;42.68;101653.91;5095636;27;47767;-69
2023/08/20 10:51:26;;;;;;;;;5.00;5.00;;;;;31.35;42.88;101638.78;5097096;27;45510;-69
2023/08/20 10:54:00;;;;;;;;;3.00;3.00;;;;;31.24;43.45;101650.78;5097287;27;45527;-70
2023/08/20 10:56:43;;;;;;;;;4.00;4.00;;;;;30.97;43.63;101635.06;5100524;27;45552;-69
2023/08/20 10:59:13;;;;;;;;;2.25;2.25;;;;;30.95;43.33;101648.25;5100059;27;46589;-69
2023/08/20 11:01:38;;;;;;;;;4.25;4.25;;;;;30.89;44.21;101646.53;5098721;27;46060;-69
2023/08/20 11:04:07;;;;;;;;;4.25;4.25;;;;;30.75;43.90;101639.78;5100498;27;45520;-69
2023/08/20 11:06:33;;;;;;;;;6.25;5.50;;;;;30.63;44.51;101641.81;5100861;27;45325;-68
2023/08/20 11:08:58;;;;;;;;;3.00;3.00;;;;;30.58;44.63;101639.81;5098921;27;47335;-69
2023/08/20 11:11:25;;;;;;;;;3.00;2.25;;;;;30.49;44.42;101630.38;5100493;27;45514;-68
2023/08/20 11:13:51;;;;;;;;;4.00;3.00;;;;;30.51;44.46;101647.41;5100397;27;45470;-69
2023/08/20 11:16:17;;;;;;;;;4.00;4.00;;;;;30.47;44.21;101655.34;5100227;27;45211;-68
2023/08/20 11:18:43;;;;;;;;;4.75;3.00;;;;;30.39;43.74;101647.53;5099713;27;47818;-69
2023/08/20 11:21:09;;;;;;;;;4.00;2.00;;;;;30.34;44.01;101650.22;5100341;27;45397;-69